Time;durP1;ratioP1;P1;durP2;ratioP2;P2;SDS_P1;SDS_P2;PMS_P1;PMS_P2;Temp;Humidity;BMP_temperature;BMP_pressure;BME280_temperature;BME280_humidity;BME280_pressure;Samples;Min_cycle;Max_cycle;Signal;HPM_P1;HPM_P2
2022/07/10 00:00:43;;;;;;;;;;;;;;;;;;2140928;27;19997;-46
2022/07/10 00:01:44;;;;;;;;;;;;;;;;;;2140904;27;19923;-46
2022/07/10 00:02:45;;;;;;;;;;;;;;;;;;2141033;27;20061;-47
2022/07/10 00:03:49;;;;;;;;;;;;;;;;;;2140849;27;19923;-46
2022/07/10 00:04:50;;;;;;;;;;;;;;;;;;2140851;27;19983;-45
2022/07/10 00:05:51;;;;;;;;;;;;;;;;;;2140752;27;19923;-46
2022/07/10 00:06:52;;;;;;;;;;;;;;;;;;2140782;27;19930;-46
2022/07/10 00:07:53;;;;;;;;;;;;;;;;;;2140782;27;19923;-46
2022/07/10 00:08:55;;;;;;;;;;;;;;;;;;2140902;27;19954;-47
2022/07/10 00:09:56;;;;;;;;;;;;;;;;;;2140887;27;20398;-46
2022/07/10 00:10:57;;;;;;;;;;;;;;;;;;2140312;27;19952;-46
2022/07/10 00:11:58;;;;;;;;;;;;;;;;;;2132252;27;19984;-46
2022/07/10 00:12:58;;;;;;;;;;;;;;;;;;2132398;27;20556;-46
2022/07/10 00:13:59;;;;;;;;;;;;;;;;;;2132271;27;19923;-46
2022/07/10 00:15:00;;;;;;;;;;;;;;;;;;2132354;27;20013;-46
2022/07/10 00:16:01;;;;;;;;;;;;;;;;;;2132035;27;19931;-45
2022/07/10 00:17:02;;;;;;;;;;;;;;;;;;2132192;27;19929;-46
2022/07/10 00:18:03;;;;;;;;;;;;;;;;;;2132430;27;20382;-46
2022/07/10 00:19:04;;;;;;;;;;;;;;;;;;2132144;27;20410;-48
2022/07/10 00:20:05;;;;;;;;;;;;;;;;;;2132182;27;19923;-46
2022/07/10 00:21:06;;;;;;;;;;;;;;;;;;2132008;27;20447;-46
2022/07/10 00:22:07;;;;;;;;;;;;;;;;;;2132095;27;19930;-45
2022/07/10 00:23:08;;;;;;;;;;;;;;;;;;2132179;27;20014;-47
2022/07/10 00:24:10;;;;;;;;;;;;;;;;;;2132149;27;20006;-46
2022/07/10 00:25:10;;;;;;;;;;;;;;;;;;2132242;27;20013;-47
2022/07/10 00:26:11;;;;;;;;;;;;;;;;;;2131963;27;19923;-47
2022/07/10 00:27:12;;;;;;;;;;;;;;;;;;2132122;27;19923;-46
2022/07/10 00:28:13;;;;;;;;;;;;;;;;;;2132054;27;19945;-46
2022/07/10 00:29:14;;;;;;;;;;;;;;;;;;2132107;27;19927;-46
2022/07/10 00:30:15;;;;;;;;;;;;;;;;;;2132505;27;19963;-46
2022/07/10 00:31:15;;;;;;;;;;;;;;;;;;2140704;27;20018;-47
2022/07/10 00:32:17;;;;;;;;;;;;;;;;;;2140772;27;20287;-47
2022/07/10 00:33:17;;;;;;;;;;;;;;;;;;2140603;27;19922;-46
2022/07/10 00:34:18;;;;;;;;;;;;;;;;;;2140831;27;19934;-46
2022/07/10 00:35:19;;;;;;;;;;;;;;;;;;2140594;27;20017;-46
2022/07/10 00:36:20;;;;;;;;;;;;;;;;;;2140497;27;20343;-45
2022/07/10 00:37:21;;;;;;;;;;;;;;;;;;2140817;27;20064;-43
2022/07/10 00:38:22;;;;;;;;;;;;;;;;;;2140606;27;20023;-43
2022/07/10 00:39:23;;;;;;;;;;;;;;;;;;2140608;27;19969;-43
2022/07/10 00:40:24;;;;;;;;;;;;;;;;;;2140794;27;20013;-43
2022/07/10 00:41:25;;;;;;;;;;;;;;;;;;2140777;27;19929;-46
2022/07/10 00:42:25;;;;;;;;;;;;;;;;;;2140667;27;20009;-46
2022/07/10 00:43:26;;;;;;;;;;;;;;;;;;2140635;27;19930;-46
2022/07/10 00:44:28;;;;;;;;;;;;;;;;;;2140565;27;19922;-46
2022/07/10 00:45:29;;;;;;;;;;;;;;;;;;2140575;27;19927;-46
2022/07/10 00:46:29;;;;;;;;;;;;;;;;;;2140492;27;20005;-47
2022/07/10 00:47:30;;;;;;;;;;;;;;;;;;2140834;27;19982;-42
2022/07/10 00:48:31;;;;;;;;;;;;;;;;;;2140624;27;19941;-43
2022/07/10 00:49:32;;;;;;;;;;;;;;;;;;2140584;27;19958;-42
2022/07/10 00:50:33;;;;;;;;;;;;;;;;;;2140564;27;20266;-43
2022/07/10 00:51:34;;;;;;;;;;;;;;;;;;2140435;27;20425;-43
2022/07/10 00:52:38;;;;;;;;;;;;;;;;;;2140601;27;19922;-42
2022/07/10 00:53:39;;;;;;;;;;;;;;;;;;2140531;27;20055;-44
2022/07/10 00:54:40;;;;;;;;;;;;;;;;;;2140564;27;20007;-42
2022/07/10 00:55:42;;;;;;;;;;;;;;;;;;2140468;27;20555;-43
2022/07/10 00:56:42;;;;;;;;;;;;;;;;;;2140490;27;19969;-42
2022/07/10 00:57:43;;;;;;;;;;;;;;;;;;2139440;27;19923;-43
2022/07/10 00:58:44;;;;;;;;;;;;;;;;;;2140629;27;19999;-42
2022/07/10 00:59:45;;;;;;;;;;;;;;;;;;2140479;27;20340;-42
2022/07/10 01:00:46;;;;;;;;;;;;;;;;;;2140407;27;19926;-42
2022/07/10 01:01:48;;;;;;;;;;;;;;;;;;2140329;27;20403;-42
2022/07/10 01:02:48;;;;;;;;;;;;;;;;;;2140614;27;19930;-42
2022/07/10 01:03:49;;;;;;;;;;;;;;;;;;2140437;27;20302;-42
2022/07/10 01:04:51;;;;;;;;;;;;;;;;;;2140551;27;19978;-43
2022/07/10 01:05:52;;;;;;;;;;;;;;;;;;2140493;27;19936;-43
2022/07/10 01:06:53;;;;;;;;;;;;;;;;;;2140311;27;19987;-42
2022/07/10 01:07:54;;;;;;;;;;;;;;;;;;2140576;27;19922;-42
2022/07/10 01:08:55;;;;;;;;;;;;;;;;;;2140427;27;20295;-43
2022/07/10 01:09:56;;;;;;;;;;;;;;;;;;2140597;27;19930;-42
2022/07/10 01:10:56;;;;;;;;;;;;;;;;;;2139832;27;20014;-43
2022/07/10 01:11:58;;;;;;;;;;;;;;;;;;2132002;27;19922;-43
2022/07/10 01:12:59;;;;;;;;;;;;;;;;;;2131872;27;20010;-42
2022/07/10 01:14:00;;;;;;;;;;;;;;;;;;2131933;27;19927;-42
2022/07/10 01:15:00;;;;;;;;;;;;;;;;;;2131910;27;20154;-43
2022/07/10 01:16:01;;;;;;;;;;;;;;;;;;2131833;27;20286;-43
2022/07/10 01:17:02;;;;;;;;;;;;;;;;;;2131827;27;20010;-43
2022/07/10 01:18:03;;;;;;;;;;;;;;;;;;2131747;27;19923;-43
2022/07/10 01:19:06;;;;;;;;;;;;;;;;;;2131776;27;20384;-42
2022/07/10 01:20:07;;;;;;;;;;;;;;;;;;2132138;27;19929;-45
2022/07/10 01:21:07;;;;;;;;;;;;;;;;;;2131810;27;19964;-46
2022/07/10 01:22:09;;;;;;;;;;;;;;;;;;2131767;27;20317;-45
2022/07/10 01:23:09;;;;;;;;;;;;;;;;;;2131859;27;19987;-46
2022/07/10 01:24:10;;;;;;;;;;;;;;;;;;2131694;27;20415;-46
2022/07/10 01:25:11;;;;;;;;;;;;;;;;;;2131852;27;20122;-45
2022/07/10 01:26:12;;;;;;;;;;;;;;;;;;2131910;27;19958;-45
2022/07/10 01:27:13;;;;;;;;;;;;;;;;;;2138207;27;20009;-46
2022/07/10 01:28:14;;;;;;;;;;;;;;;;;;2140281;27;20016;-45
2022/07/10 01:29:15;;;;;;;;;;;;;;;;;;2140296;27;20017;-45
2022/07/10 01:30:16;;;;;;;;;;;;;;;;;;2140489;27;19962;-45
2022/07/10 01:31:16;;;;;;;;;;;;;;;;;;2140183;27;20379;-45
2022/07/10 01:32:18;;;;;;;;;;;;;;;;;;2140450;27;19927;-46
2022/07/10 01:33:18;;;;;;;;;;;;;;;;;;2140331;27;19923;-45
2022/07/10 01:34:19;;;;;;;;;;;;;;;;;;2140226;27;20001;-45
2022/07/10 01:35:20;;;;;;;;;;;;;;;;;;2140569;27;19922;-47
2022/07/10 01:36:21;;;;;;;;;;;;;;;;;;2140342;27;19965;-46
2022/07/10 01:37:22;;;;;;;;;;;;;;;;;;2140190;27;20454;-50
2022/07/10 01:38:23;;;;;;;;;;;;;;;;;;2140233;27;19923;-45
2022/07/10 01:39:23;;;;;;;;;;;;;;;;;;2140509;27;19930;-42
2022/07/10 01:40:24;;;;;;;;;;;;;;;;;;2140224;27;20013;-42
2022/07/10 01:41:25;;;;;;;;;;;;;;;;;;2140377;27;19922;-42
2022/07/10 01:42:26;;;;;;;;;;;;;;;;;;2140286;27;19923;-42
2022/07/10 01:43:27;;;;;;;;;;;;;;;;;;2140256;27;19929;-42
2022/07/10 01:44:28;;;;;;;;;;;;;;;;;;2140603;27;20003;-42
2022/07/10 01:45:29;;;;;;;;;;;;;;;;;;2140316;27;20005;-42
2022/07/10 01:46:30;;;;;;;;;;;;;;;;;;2140099;27;20441;-43
2022/07/10 01:47:30;;;;;;;;;;;;;;;;;;2140364;27;20006;-42
2022/07/10 01:48:31;;;;;;;;;;;;;;;;;;2140186;27;20026;-42
2022/07/10 01:49:33;;;;;;;;;;;;;;;;;;2140223;27;19923;-42
2022/07/10 01:50:34;;;;;;;;;;;;;;;;;;2140278;27;19923;-42
2022/07/10 01:51:35;;;;;;;;;;;;;;;;;;2140115;27;20451;-42
2022/07/10 01:52:36;;;;;;;;;;;;;;;;;;2140252;27;19927;-42
2022/07/10 01:53:37;;;;;;;;;;;;;;;;;;2140162;27;19972;-42
2022/07/10 01:54:38;;;;;;;;;;;;;;;;;;2140328;27;19929;-42
2022/07/10 01:55:39;;;;;;;;;;;;;;;;;;2140053;27;19926;-42
2022/07/10 01:56:40;;;;;;;;;;;;;;;;;;2140231;27;20288;-43
2022/07/10 01:57:40;;;;;;;;;;;;;;;;;;2140306;27;19923;-43
2022/07/10 01:58:41;;;;;;;;;;;;;;;;;;2140016;27;19961;-42
2022/07/10 01:59:43;;;;;;;;;;;;;;;;;;2140510;27;19948;-45
2022/07/10 02:00:44;;;;;;;;;;;;;;;;;;2140158;27;19954;-45
2022/07/10 02:01:45;;;;;;;;;;;;;;;;;;2140082;27;20051;-46
2022/07/10 02:04:40;;;;;;;;;;;;;;;;;;2140068;27;19946;-46
2022/07/10 02:05:26;;;;;;;;;;;;;;;;;;2139881;27;20404;-46
2022/07/10 02:06:27;;;;;;;;;;;;;;;;;;2140277;27;19944;-45
2022/07/10 02:07:28;;;;;;;;;;;;;;;;;;2140163;27;19923;-45
2022/07/10 02:08:29;;;;;;;;;;;;;;;;;;2140213;27;19961;-45
2022/07/10 02:09:30;;;;;;;;;;;;;;;;;;2141655;27;20283;-42
2022/07/10 02:10:30;;;;;;;;;;;;;;;;;;2142059;27;20392;-42
2022/07/10 02:11:31;;;;;;;;;;;;;;;;;;2136065;27;19927;-42
2022/07/10 02:12:32;;;;;;;;;;;;;;;;;;2133092;27;19931;-42
2022/07/10 02:13:33;;;;;;;;;;;;;;;;;;2133045;27;19923;-42
2022/07/10 02:14:34;;;;;;;;;;;;;;;;;;2132914;27;19958;-42
2022/07/10 02:15:35;;;;;;;;;;;;;;;;;;2133331;27;19923;-46
2022/07/10 02:16:36;;;;;;;;;;;;;;;;;;2133059;27;19993;-42
2022/07/10 02:17:37;;;;;;;;;;;;;;;;;;2133098;27;19929;-42
2022/07/10 02:18:38;;;;;;;;;;;;;;;;;;2132901;27;20022;-42
2022/07/10 02:19:40;;;;;;;;;;;;;;;;;;2133096;27;19927;-42
2022/07/10 02:20:40;;;;;;;;;;;;;;;;;;2132936;27;20030;-42
2022/07/10 02:21:41;;;;;;;;;;;;;;;;;;2133062;27;20054;-42
2022/07/10 02:22:42;;;;;;;;;;;;;;;;;;2132802;27;20010;-42
2022/07/10 02:23:43;;;;;;;;;;;;;;;;;;2141392;27;19929;-42
2022/07/10 02:24:44;;;;;;;;;;;;;;;;;;2141645;27;19964;-42
2022/07/10 02:25:45;;;;;;;;;;;;;;;;;;2141622;27;19926;-42
2022/07/10 02:26:46;;;;;;;;;;;;;;;;;;2141377;27;20329;-42
2022/07/10 02:27:46;;;;;;;;;;;;;;;;;;2141546;27;19975;-42
2022/07/10 02:28:47;;;;;;;;;;;;;;;;;;2142108;27;20356;-42
2022/07/10 02:29:48;;;;;;;;;;;;;;;;;;2141431;27;20396;-42
2022/07/10 02:30:49;;;;;;;;;;;;;;;;;;2141556;27;19994;-42
2022/07/10 02:31:50;;;;;;;;;;;;;;;;;;2141543;27;20009;-42
2022/07/10 02:32:51;;;;;;;;;;;;;;;;;;2142059;27;20268;-42
2022/07/10 02:33:52;;;;;;;;;;;;;;;;;;2141596;27;19923;-42
2022/07/10 02:34:53;;;;;;;;;;;;;;;;;;2141635;27;19922;-42
2022/07/10 02:35:54;;;;;;;;;;;;;;;;;;2141452;27;19929;-42
2022/07/10 02:36:55;;;;;;;;;;;;;;;;;;2141873;27;20009;-42
2022/07/10 02:37:56;;;;;;;;;;;;;;;;;;2141577;27;20067;-42
2022/07/10 02:38:56;;;;;;;;;;;;;;;;;;2141347;27;20010;-42
2022/07/10 02:39:57;;;;;;;;;;;;;;;;;;2141707;27;19930;-45
2022/07/10 02:40:58;;;;;;;;;;;;;;;;;;2141372;27;19926;-45
2022/07/10 02:41:59;;;;;;;;;;;;;;;;;;2141294;27;19933;-45
2022/07/10 02:43:00;;;;;;;;;;;;;;;;;;2141678;27;20374;-42
2022/07/10 02:44:01;;;;;;;;;;;;;;;;;;2141525;27;19975;-42
2022/07/10 02:45:02;;;;;;;;;;;;;;;;;;2141376;27;19966;-41
2022/07/10 02:46:03;;;;;;;;;;;;;;;;;;2141418;27;20021;-41
2022/07/10 02:47:03;;;;;;;;;;;;;;;;;;2141442;27;20013;-42
2022/07/10 02:48:05;;;;;;;;;;;;;;;;;;2141660;27;19923;-42
2022/07/10 02:49:05;;;;;;;;;;;;;;;;;;2141730;27;19923;-42
2022/07/10 02:50:06;;;;;;;;;;;;;;;;;;2141397;27;20378;-41
2022/07/10 02:51:07;;;;;;;;;;;;;;;;;;2141404;27;19975;-42
2022/07/10 02:52:08;;;;;;;;;;;;;;;;;;2141397;27;19927;-41
2022/07/10 02:53:09;;;;;;;;;;;;;;;;;;2141564;27;20014;-41
2022/07/10 02:54:10;;;;;;;;;;;;;;;;;;2141278;27;20301;-41
2022/07/10 02:55:11;;;;;;;;;;;;;;;;;;2141468;27;20392;-41
2022/07/10 02:56:12;;;;;;;;;;;;;;;;;;2141445;27;19927;-41
2022/07/10 02:57:13;;;;;;;;;;;;;;;;;;2141229;27;19923;-42
2022/07/10 02:58:15;;;;;;;;;;;;;;;;;;2141357;27;20373;-41
2022/07/10 02:59:16;;;;;;;;;;;;;;;;;;2141297;27;19922;-42
2022/07/10 03:00:17;;;;;;;;;;;;;;;;;;2141454;27;19923;-41
2022/07/10 03:01:18;;;;;;;;;;;;;;;;;;2141438;27;20328;-44
2022/07/10 03:02:19;;;;;;;;;;;;;;;;;;2141264;27;19958;-44
2022/07/10 03:03:21;;;;;;;;;;;;;;;;;;2141241;27;19997;-44
2022/07/10 03:04:22;;;;;;;;;;;;;;;;;;2141592;27;20017;-46
2022/07/10 03:05:22;;;;;;;;;;;;;;;;;;2141420;27;20400;-41
2022/07/10 03:06:23;;;;;;;;;;;;;;;;;;2141078;27;19927;-42
2022/07/10 03:07:24;;;;;;;;;;;;;;;;;;2141308;27;19942;-42
2022/07/10 03:08:25;;;;;;;;;;;;;;;;;;2141412;27;20018;-42
2022/07/10 03:09:26;;;;;;;;;;;;;;;;;;2141286;27;19923;-42
2022/07/10 03:10:27;;;;;;;;;;;;;;;;;;2141286;27;20009;-42
2022/07/10 03:11:27;;;;;;;;;;;;;;;;;;2136421;27;20318;-45
2022/07/10 03:12:28;;;;;;;;;;;;;;;;;;2132580;27;20010;-46
2022/07/10 03:13:29;;;;;;;;;;;;;;;;;;2132836;27;19933;-45
2022/07/10 03:14:30;;;;;;;;;;;;;;;;;;2132635;27;20013;-46
2022/07/10 03:15:31;;;;;;;;;;;;;;;;;;2132704;27;19962;-45
2022/07/10 03:16:32;;;;;;;;;;;;;;;;;;2132598;27;20102;-45
2022/07/10 03:17:33;;;;;;;;;;;;;;;;;;2132611;27;19954;-45
2022/07/10 03:18:34;;;;;;;;;;;;;;;;;;2132533;27;19929;-46
2022/07/10 03:19:34;;;;;;;;;;;;;;;;;;2137799;27;19930;-46
2022/07/10 03:20:35;;;;;;;;;;;;;;;;;;2140363;27;19923;-44
2022/07/10 03:21:36;;;;;;;;;;;;;;;;;;2141048;27;19922;-45
2022/07/10 03:22:37;;;;;;;;;;;;;;;;;;2141522;27;19966;-42
2022/07/10 03:23:39;;;;;;;;;;;;;;;;;;2141587;27;19975;-42
2022/07/10 03:24:40;;;;;;;;;;;;;;;;;;2141098;27;20021;-42
2022/07/10 03:25:41;;;;;;;;;;;;;;;;;;2141150;27;19998;-42
2022/07/10 03:26:43;;;;;;;;;;;;;;;;;;2141085;27;19926;-42
2022/07/10 03:27:44;;;;;;;;;;;;;;;;;;2141047;27;20367;-42
2022/07/10 03:28:45;;;;;;;;;;;;;;;;;;2141126;27;19922;-42
2022/07/10 03:29:46;;;;;;;;;;;;;;;;;;2141219;27;19973;-42
2022/07/10 03:30:47;;;;;;;;;;;;;;;;;;2141244;27;19923;-42
2022/07/10 03:31:48;;;;;;;;;;;;;;;;;;2141198;27;19962;-42
2022/07/10 03:32:49;;;;;;;;;;;;;;;;;;2141327;27;20363;-42
2022/07/10 03:33:52;;;;;;;;;;;;;;;;;;2141166;27;19926;-42
2022/07/10 03:34:53;;;;;;;;;;;;;;;;;;2141255;27;20032;-42
2022/07/10 03:35:54;;;;;;;;;;;;;;;;;;2140967;27;19983;-42
2022/07/10 03:36:55;;;;;;;;;;;;;;;;;;2141013;27;20009;-42
2022/07/10 03:37:57;;;;;;;;;;;;;;;;;;2141180;27;19975;-42
2022/07/10 03:38:58;;;;;;;;;;;;;;;;;;2141336;27;19923;-42
2022/07/10 03:39:58;;;;;;;;;;;;;;;;;;2140945;27;20406;-42
2022/07/10 03:40:59;;;;;;;;;;;;;;;;;;2141280;27;19972;-42
2022/07/10 03:42:00;;;;;;;;;;;;;;;;;;2141044;27;19922;-42
2022/07/10 03:43:01;;;;;;;;;;;;;;;;;;2140962;27;19930;-42
2022/07/10 03:44:02;;;;;;;;;;;;;;;;;;2140991;27;19962;-42
2022/07/10 03:45:03;;;;;;;;;;;;;;;;;;2141260;27;19926;-42
2022/07/10 03:46:04;;;;;;;;;;;;;;;;;;2140824;27;20007;-45
2022/07/10 03:47:05;;;;;;;;;;;;;;;;;;2141112;27;19969;-45
2022/07/10 03:48:06;;;;;;;;;;;;;;;;;;2141296;27;19966;-42
2022/07/10 03:49:07;;;;;;;;;;;;;;;;;;2141202;27;19929;-42
2022/07/10 03:50:09;;;;;;;;;;;;;;;;;;2140985;27;20021;-42
2022/07/10 03:51:10;;;;;;;;;;;;;;;;;;2141492;27;20026;-46
2022/07/10 03:52:10;;;;;;;;;;;;;;;;;;2141298;27;19922;-42
2022/07/10 03:53:12;;;;;;;;;;;;;;;;;;2141336;27;19930;-42
2022/07/10 03:54:13;;;;;;;;;;;;;;;;;;2141520;27;20396;-42
2022/07/10 03:55:14;;;;;;;;;;;;;;;;;;2141134;27;19923;-45
2022/07/10 03:58:49;;;;;;;;;;;;;;;;;;2141032;27;20339;-42
2022/07/10 03:59:50;;;;;;;;;;;;;;;;;;2141572;27;19969;-43
2022/07/10 04:00:51;;;;;;;;;;;;;;;;;;2141611;27;20018;-42
2022/07/10 04:01:52;;;;;;;;;;;;;;;;;;2141083;27;19929;-42
2022/07/10 04:02:53;;;;;;;;;;;;;;;;;;2141152;27;19929;-45
2022/07/10 04:03:54;;;;;;;;;;;;;;;;;;2141008;27;19988;-42
2022/07/10 04:04:55;;;;;;;;;;;;;;;;;;2141261;27;19958;-45
2022/07/10 04:05:56;;;;;;;;;;;;;;;;;;2141003;27;19934;-42
2022/07/10 04:06:57;;;;;;;;;;;;;;;;;;2141002;27;20013;-44
2022/07/10 04:07:57;;;;;;;;;;;;;;;;;;2141267;27;19975;-45
2022/07/10 04:08:58;;;;;;;;;;;;;;;;;;2142308;27;20264;-44
2022/07/10 04:09:59;;;;;;;;;;;;;;;;;;2141004;27;19934;-42
2022/07/10 04:11:02;;;;;;;;;;;;;;;;;;2139983;27;19923;-42
2022/07/10 04:12:02;;;;;;;;;;;;;;;;;;2132347;27;20055;-42
2022/07/10 04:13:04;;;;;;;;;;;;;;;;;;2132347;27;20013;-45
2022/07/10 04:14:05;;;;;;;;;;;;;;;;;;2132224;27;19923;-46
2022/07/10 04:15:06;;;;;;;;;;;;;;;;;;2133169;27;19946;-45
2022/07/10 04:16:11;;;;;;;;;;;;;;;;;;2139895;27;20014;-43
2022/07/10 04:17:12;;;;;;;;;;;;;;;;;;2141023;27;19923;-41
2022/07/10 04:18:13;;;;;;;;;;;;;;;;;;2141609;27;20017;-44
2022/07/10 04:19:15;;;;;;;;;;;;;;;;;;2141151;27;20010;-43
2022/07/10 04:20:16;;;;;;;;;;;;;;;;;;2141096;27;20351;-42
2022/07/10 04:21:17;;;;;;;;;;;;;;;;;;2141014;27;19923;-42
2022/07/10 04:22:17;;;;;;;;;;;;;;;;;;2141759;27;20013;-47
2022/07/10 04:23:18;;;;;;;;;;;;;;;;;;2141530;27;20359;-45
2022/07/10 04:24:19;;;;;;;;;;;;;;;;;;2141189;27;19991;-42
2022/07/10 04:25:20;;;;;;;;;;;;;;;;;;2140889;27;19923;-43
2022/07/10 04:26:21;;;;;;;;;;;;;;;;;;2140685;27;19950;-43
2022/07/10 04:27:22;;;;;;;;;;;;;;;;;;2141697;27;20375;-46
2022/07/10 04:28:23;;;;;;;;;;;;;;;;;;2141086;27;20416;-45
2022/07/10 04:29:24;;;;;;;;;;;;;;;;;;2140889;27;20013;-46
2022/07/10 04:30:25;;;;;;;;;;;;;;;;;;2141040;27;19999;-46
2022/07/10 04:31:26;;;;;;;;;;;;;;;;;;2140609;27;20413;-45
2022/07/10 04:32:28;;;;;;;;;;;;;;;;;;2139874;27;20331;-43
2022/07/10 04:33:28;;;;;;;;;;;;;;;;;;2141062;27;19961;-45
2022/07/10 04:34:29;;;;;;;;;;;;;;;;;;2140473;27;19933;-48
2022/07/10 04:35:30;;;;;;;;;;;;;;;;;;2140643;27;20017;-46
2022/07/10 04:36:31;;;;;;;;;;;;;;;;;;2140876;27;19923;-43
2022/07/10 04:37:34;;;;;;;;;;;;;;;;;;2141098;27;20010;-43
2022/07/10 04:38:35;;;;;;;;;;;;;;;;;;2141681;27;19990;-46
2022/07/10 04:39:37;;;;;;;;;;;;;;;;;;2140684;27;19978;-46
2022/07/10 04:40:38;;;;;;;;;;;;;;;;;;2140993;27;20010;-48
2022/07/10 04:41:39;;;;;;;;;;;;;;;;;;2141658;27;20009;-46
2022/07/10 04:42:40;;;;;;;;;;;;;;;;;;2140654;27;19927;-47
2022/07/10 04:43:40;;;;;;;;;;;;;;;;;;2140871;27;19977;-43
2022/07/10 04:44:42;;;;;;;;;;;;;;;;;;2141084;27;19923;-46
2022/07/10 04:45:43;;;;;;;;;;;;;;;;;;2141418;27;19930;-43
2022/07/10 04:46:43;;;;;;;;;;;;;;;;;;2140654;27;19929;-46
2022/07/10 04:47:45;;;;;;;;;;;;;;;;;;2141500;27;20086;-43
2022/07/10 04:48:45;;;;;;;;;;;;;;;;;;2140763;27;19923;-43
2022/07/10 04:49:46;;;;;;;;;;;;;;;;;;2141036;27;19981;-46
2022/07/10 04:50:47;;;;;;;;;;;;;;;;;;2141146;27;20062;-46
2022/07/10 04:51:48;;;;;;;;;;;;;;;;;;2141143;27;20370;-46
2022/07/10 04:52:50;;;;;;;;;;;;;;;;;;2140813;27;20430;-46
2022/07/10 04:53:51;;;;;;;;;;;;;;;;;;2141188;27;20017;-46
2022/07/10 04:54:51;;;;;;;;;;;;;;;;;;2140898;27;19923;-46
2022/07/10 04:55:52;;;;;;;;;;;;;;;;;;2140881;27;20391;-46
2022/07/10 04:56:53;;;;;;;;;;;;;;;;;;2141391;27;19922;-45
2022/07/10 04:57:54;;;;;;;;;;;;;;;;;;2141027;27;19922;-45
2022/07/10 04:58:55;;;;;;;;;;;;;;;;;;2142083;27;20013;-46
2022/07/10 04:59:56;;;;;;;;;;;;;;;;;;2140773;27;19931;-45
2022/07/10 05:00:57;;;;;;;;;;;;;;;;;;2141222;27;20034;-45
2022/07/10 05:01:58;;;;;;;;;;;;;;;;;;2140437;27;19923;-45
2022/07/10 05:02:59;;;;;;;;;;;;;;;;;;2140473;27;20010;-45
2022/07/10 05:04:00;;;;;;;;;;;;;;;;;;2141971;27;19933;-44
2022/07/10 05:05:00;;;;;;;;;;;;;;;;;;2141119;27;19930;-49
2022/07/10 05:06:02;;;;;;;;;;;;;;;;;;2141053;27;20005;-46
2022/07/10 05:07:02;;;;;;;;;;;;;;;;;;2140594;27;19923;-47
2022/07/10 05:08:03;;;;;;;;;;;;;;;;;;2140761;27;19923;-43
2022/07/10 05:09:04;;;;;;;;;;;;;;;;;;2141016;27;20014;-43
2022/07/10 05:10:05;;;;;;;;;;;;;;;;;;2140813;27;19959;-45
2022/07/10 05:11:06;;;;;;;;;;;;;;;;;;2140144;27;19965;-46
2022/07/10 05:12:07;;;;;;;;;;;;;;;;;;2140365;27;20367;-43
2022/07/10 05:13:08;;;;;;;;;;;;;;;;;;2140893;27;19923;-44
2022/07/10 05:14:09;;;;;;;;;;;;;;;;;;2140401;27;19968;-43
2022/07/10 05:15:09;;;;;;;;;;;;;;;;;;2140604;27;19931;-45
2022/07/10 05:16:10;;;;;;;;;;;;;;;;;;2140568;27;20427;-48
2022/07/10 05:17:15;;;;;;;;;;;;;;;;;;2140540;27;19922;-46
2022/07/10 05:18:16;;;;;;;;;;;;;;;;;;2140975;27;19923;-44
2022/07/10 05:19:17;;;;;;;;;;;;;;;;;;2140413;27;20018;-44
2022/07/10 05:20:18;;;;;;;;;;;;;;;;;;2140450;27;19996;-44
2022/07/10 05:21:18;;;;;;;;;;;;;;;;;;2140339;27;19923;-44
2022/07/10 05:22:20;;;;;;;;;;;;;;;;;;2141241;27;19927;-43
2022/07/10 05:23:21;;;;;;;;;;;;;;;;;;2140544;27;20434;-44
2022/07/10 05:24:22;;;;;;;;;;;;;;;;;;2140931;27;20021;-43
2022/07/10 05:25:22;;;;;;;;;;;;;;;;;;2140531;27;19997;-44
2022/07/10 05:26:23;;;;;;;;;;;;;;;;;;2140339;27;19962;-43
2022/07/10 05:27:25;;;;;;;;;;;;;;;;;;2140511;27;20397;-46
2022/07/10 05:28:26;;;;;;;;;;;;;;;;;;2140904;27;19998;-41
2022/07/10 05:29:27;;;;;;;;;;;;;;;;;;2140550;27;19930;-46
2022/07/10 05:30:28;;;;;;;;;;;;;;;;;;2140540;27;19927;-45
2022/07/10 05:31:28;;;;;;;;;;;;;;;;;;2140852;27;19922;-44
2022/07/10 05:32:30;;;;;;;;;;;;;;;;;;2140481;27;19926;-46
2022/07/10 05:33:32;;;;;;;;;;;;;;;;;;2140538;27;20010;-44
2022/07/10 05:34:33;;;;;;;;;;;;;;;;;;2140691;27;20029;-45
2022/07/10 05:35:34;;;;;;;;;;;;;;;;;;2140644;27;20157;-44
2022/07/10 05:36:35;;;;;;;;;;;;;;;;;;2140702;27;19934;-45
2022/07/10 05:37:35;;;;;;;;;;;;;;;;;;2140488;27;20037;-43
2022/07/10 05:38:36;;;;;;;;;;;;;;;;;;2140357;27;20446;-43
2022/07/10 05:39:37;;;;;;;;;;;;;;;;;;2140440;27;19923;-44
2022/07/10 05:40:38;;;;;;;;;;;;;;;;;;2140617;27;20387;-43
2022/07/10 05:41:39;;;;;;;;;;;;;;;;;;2140292;27;19971;-43
2022/07/10 05:42:40;;;;;;;;;;;;;;;;;;2140594;27;19933;-44
2022/07/10 05:43:41;;;;;;;;;;;;;;;;;;2139704;27;20039;-43
2022/07/10 05:44:42;;;;;;;;;;;;;;;;;;2140805;27;19975;-43
2022/07/10 05:45:43;;;;;;;;;;;;;;;;;;2140912;27;20014;-45
2022/07/10 05:46:49;;;;;;;;;;;;;;;;;;2140234;27;19933;-46
2022/07/10 05:47:50;;;;;;;;;;;;;;;;;;2140624;27;19931;-46
2022/07/10 05:48:51;;;;;;;;;;;;;;;;;;2140271;27;20395;-46
2022/07/10 05:49:52;;;;;;;;;;;;;;;;;;2140746;27;20021;-44
2022/07/10 05:50:53;;;;;;;;;;;;;;;;;;2140490;27;19923;-46
2022/07/10 05:51:53;;;;;;;;;;;;;;;;;;2140674;27;19922;-44
2022/07/10 05:52:54;;;;;;;;;;;;;;;;;;2141018;27;19927;-44
2022/07/10 05:53:55;;;;;;;;;;;;;;;;;;2140889;27;20260;-44
2022/07/10 05:54:56;;;;;;;;;;;;;;;;;;2140445;27;19965;-43
2022/07/10 05:55:57;;;;;;;;;;;;;;;;;;2140459;27;19923;-46
2022/07/10 05:56:58;;;;;;;;;;;;;;;;;;2140203;27;20446;-47
2022/07/10 05:57:59;;;;;;;;;;;;;;;;;;2140213;27;19926;-46
2022/07/10 05:59:00;;;;;;;;;;;;;;;;;;2140390;27;19934;-46
2022/07/10 06:00:01;;;;;;;;;;;;;;;;;;2140755;27;19967;-45
2022/07/10 06:01:04;;;;;;;;;;;;;;;;;;2140447;27;19923;-45
2022/07/10 06:02:05;;;;;;;;;;;;;;;;;;2140176;27;19926;-43
2022/07/10 06:03:06;;;;;;;;;;;;;;;;;;2140216;27;19922;-43
2022/07/10 06:04:07;;;;;;;;;;;;;;;;;;2140836;27;20366;-44
2022/07/10 06:05:07;;;;;;;;;;;;;;;;;;2140403;27;19922;-43
2022/07/10 06:06:09;;;;;;;;;;;;;;;;;;2140060;27;19923;-44
2022/07/10 06:07:10;;;;;;;;;;;;;;;;;;2140885;27;20001;-46
2022/07/10 06:08:11;;;;;;;;;;;;;;;;;;2139956;27;20380;-46
2022/07/10 06:09:11;;;;;;;;;;;;;;;;;;2140072;27;19923;-46
2022/07/10 06:10:13;;;;;;;;;;;;;;;;;;2140391;27;19969;-45
2022/07/10 06:11:15;;;;;;;;;;;;;;;;;;2137282;27;19923;-46
2022/07/10 06:12:16;;;;;;;;;;;;;;;;;;2131639;27;20010;-46
2022/07/10 06:13:17;;;;;;;;;;;;;;;;;;2131790;27;20018;-46
2022/07/10 06:14:18;;;;;;;;;;;;;;;;;;2131729;27;20581;-45
2022/07/10 06:15:19;;;;;;;;;;;;;;;;;;2131521;27;19958;-45
2022/07/10 06:16:20;;;;;;;;;;;;;;;;;;2132125;27;20019;-44
2022/07/10 06:17:21;;;;;;;;;;;;;;;;;;2131417;27;20141;-43
2022/07/10 06:18:22;;;;;;;;;;;;;;;;;;2131935;27;19924;-44
2022/07/10 06:19:23;;;;;;;;;;;;;;;;;;2131808;27;20006;-47
2022/07/10 06:20:24;;;;;;;;;;;;;;;;;;2131421;27;20002;-43
2022/07/10 06:21:25;;;;;;;;;;;;;;;;;;2131268;27;19923;-43
2022/07/10 06:22:33;;;;;;;;;;;;;;;;;;2131589;27;19930;-43
2022/07/10 06:23:34;;;;;;;;;;;;;;;;;;2131360;27;20467;-43
2022/07/10 06:24:35;;;;;;;;;;;;;;;;;;2131516;27;20009;-43
2022/07/10 06:25:36;;;;;;;;;;;;;;;;;;2132011;27;19930;-44
2022/07/10 06:26:36;;;;;;;;;;;;;;;;;;2131643;27;19931;-50
2022/07/10 06:27:37;;;;;;;;;;;;;;;;;;2131979;27;20008;-47
2022/07/10 06:28:39;;;;;;;;;;;;;;;;;;2131575;27;20386;-43
2022/07/10 06:29:40;;;;;;;;;;;;;;;;;;2131529;27;20031;-43
2022/07/10 06:30:41;;;;;;;;;;;;;;;;;;2131758;27;20361;-47
2022/07/10 06:31:43;;;;;;;;;;;;;;;;;;2131520;27;19923;-47
2022/07/10 06:32:44;;;;;;;;;;;;;;;;;;2131419;27;19943;-46
2022/07/10 06:33:45;;;;;;;;;;;;;;;;;;2131655;27;19923;-46
2022/07/10 06:34:46;;;;;;;;;;;;;;;;;;2131584;27;20002;-43
2022/07/10 06:35:47;;;;;;;;;;;;;;;;;;2131476;27;20017;-43
2022/07/10 06:36:48;;;;;;;;;;;;;;;;;;2131190;27;19969;-43
2022/07/10 06:37:49;;;;;;;;;;;;;;;;;;2132162;27;20044;-45
2022/07/10 06:38:49;;;;;;;;;;;;;;;;;;2131861;27;20021;-46
2022/07/10 06:39:51;;;;;;;;;;;;;;;;;;2131513;27;19988;-44
2022/07/10 06:40:52;;;;;;;;;;;;;;;;;;2131557;27;20432;-46
2022/07/10 06:41:53;;;;;;;;;;;;;;;;;;2131933;27;19927;-48
2022/07/10 06:42:54;;;;;;;;;;;;;;;;;;2131767;27;19930;-47
2022/07/10 06:43:55;;;;;;;;;;;;;;;;;;2131487;27;19923;-46
2022/07/10 06:44:56;;;;;;;;;;;;;;;;;;2131863;27;19924;-46
2022/07/10 06:45:57;;;;;;;;;;;;;;;;;;2131470;27;20304;-46
2022/07/10 06:48:17;;;;;;;;;;;;;;;;;;2131678;27;20015;-45
2022/07/10 06:49:18;;;;;;;;;;;;;;;;;;2131391;27;20013;-47
2022/07/10 06:50:19;;;;;;;;;;;;;;;;;;2131617;27;20152;-44
2022/07/10 06:51:21;;;;;;;;;;;;;;;;;;2132131;27;19930;-46
2022/07/10 06:52:22;;;;;;;;;;;;;;;;;;2131613;27;20036;-44
2022/07/10 06:53:26;;;;;;;;;;;;;;;;;;2131714;27;20380;-43
2022/07/10 06:54:27;;;;;;;;;;;;;;;;;;2131313;27;19923;-45
2022/07/10 06:55:28;;;;;;;;;;;;;;;;;;2131381;27;20010;-44
2022/07/10 06:56:28;;;;;;;;;;;;;;;;;;2132805;27;20275;-49
2022/07/10 06:57:29;;;;;;;;;;;;;;;;;;2132782;27;20049;-46
2022/07/10 06:58:30;;;;;;;;;;;;;;;;;;2133193;27;19995;-46
2022/07/10 06:59:31;;;;;;;;;;;;;;;;;;2133149;27;19923;-43
2022/07/10 07:00:32;;;;;;;;;;;;;;;;;;2132841;27;20018;-43
2022/07/10 07:01:33;;;;;;;;;;;;;;;;;;2133081;27;20026;-43
2022/07/10 07:02:34;;;;;;;;;;;;;;;;;;2132824;27;19923;-45